createdAt,value
2015-05-18T00:00:02.386Z,96008
2015-05-18T00:00:20.949Z,95999
2015-05-18T00:00:39.577Z,96002
2015-05-18T00:00:58.561Z,95999
2015-05-18T00:01:17.202Z,95999
2015-05-18T00:01:35.717Z,95999
2015-05-18T00:01:54.407Z,95996
2015-05-18T00:02:12.969Z,95994
2015-05-18T00:02:31.376Z,96002
2015-05-18T00:02:49.987Z,95997
2015-05-18T00:03:08.628Z,95991
2015-05-18T00:03:27.362Z,95999
2015-05-18T00:03:45.802Z,95999
2015-05-18T00:04:04.614Z,95997
2015-05-18T00:04:23.192Z,95994
2015-05-18T00:04:41.989Z,95994
2015-05-18T00:05:00.773Z,95994
2015-05-18T00:05:19.258Z,95988
2015-05-18T00:05:37.789Z,96005
2015-05-18T00:05:56.416Z,95988
2015-05-18T00:06:14.869Z,95991
2015-05-18T00:06:33.416Z,95988
2015-05-18T00:06:51.966Z,95991
2015-05-18T00:07:10.638Z,95986
2015-05-18T00:07:29.310Z,95980
2015-05-18T00:07:47.874Z,95986
2015-05-18T00:08:06.343Z,95983
2015-05-18T00:08:25.062Z,95983
2015-05-18T00:08:42.905Z,95981
2015-05-18T00:09:01.689Z,95978
2015-05-18T00:09:20.345Z,95987
2015-05-18T00:09:38.923Z,95984
2015-05-18T00:09:57.331Z,95984
2015-05-18T00:10:15.784Z,95978
2015-05-18T00:10:34.237Z,95984
2015-05-18T00:10:52.647Z,95990
2015-05-18T00:11:11.162Z,95987
2015-05-18T00:11:29.647Z,95979
2015-05-18T00:11:48.240Z,95976
2015-05-18T00:12:06.883Z,95985
2015-05-18T00:12:25.305Z,95988
2015-05-18T00:12:43.805Z,95982
2015-05-18T00:13:02.229Z,95979
2015-05-18T00:13:20.932Z,95982
2015-05-18T00:13:39.479Z,95976
2015-05-18T00:13:57.919Z,95979
2015-05-18T00:14:16.388Z,95980
2015-05-18T00:14:34.982Z,95980
2015-05-18T00:14:53.497Z,95977
2015-05-18T00:15:11.906Z,95983
2015-05-18T00:15:30.421Z,95980
2015-05-18T00:15:49.109Z,95967
2015-05-18T00:16:07.689Z,95977
2015-05-18T00:16:26.126Z,95983
2015-05-18T00:16:44.517Z,95980
2015-05-18T00:17:03.145Z,95977
2015-05-18T00:17:21.629Z,95977
2015-05-18T00:17:40.020Z,95975
2015-05-18T00:17:58.504Z,95980
2015-05-18T00:18:17.070Z,95980
2015-05-18T00:18:35.554Z,95972
2015-05-18T00:18:53.929Z,95980
2015-05-18T00:19:12.353Z,95978
2015-05-18T00:19:30.900Z,95975
2015-05-18T00:19:49.338Z,95978
2015-05-18T00:20:07.996Z,95984
2015-05-18T00:20:26.433Z,95981
2015-05-18T00:20:44.840Z,95972
2015-05-18T00:21:03.543Z,95978
2015-05-18T00:21:22.202Z,95975
2015-05-18T00:21:40.655Z,95967
2015-05-18T00:21:59.280Z,95972
2015-05-18T00:22:18.032Z,95975
2015-05-18T00:22:36.501Z,95967
2015-05-18T00:22:55.079Z,95978
2015-05-18T00:23:13.501Z,95967
2015-05-18T00:23:31.940Z,95972
2015-05-18T00:23:50.347Z,95964
2015-05-18T00:24:08.987Z,95972
2015-05-18T00:24:27.645Z,95972
2015-05-18T00:24:46.208Z,95964
2015-05-18T00:25:04.599Z,95962
2015-05-18T00:25:23.117Z,95962
2015-05-18T00:25:41.711Z,95962
2015-05-18T00:26:00.164Z,95953
2015-05-18T00:26:19.198Z,95965
2015-05-18T00:26:38.042Z,95970
2015-05-18T00:26:56.573Z,95948
2015-05-18T00:27:15.198Z,95957
2015-05-18T00:27:33.950Z,95962
2015-05-18T00:27:52.403Z,95963
2015-05-18T00:28:10.888Z,95960
2015-05-18T00:28:29.609Z,95957
2015-05-18T00:28:48.202Z,95955
2015-05-18T00:29:06.671Z,95963
2015-05-18T00:29:25.330Z,95955
2015-05-18T00:29:43.955Z,95958
2015-05-18T00:30:02.440Z,95952
2015-05-18T00:30:21.096Z,95952
2015-05-18T00:30:39.489Z,95955
2015-05-18T00:30:57.442Z,95952
2015-05-18T00:31:15.973Z,95947
2015-05-18T00:31:34.522Z,95950
2015-05-18T00:31:53.319Z,95953
2015-05-18T00:32:11.756Z,95947
2015-05-18T00:32:29.822Z,95950
2015-05-18T00:32:48.212Z,95947
2015-05-18T00:33:06.759Z,95939
2015-05-18T00:33:25.431Z,95939
2015-05-18T00:33:43.933Z,95953
2015-05-18T00:34:02.449Z,95945
2015-05-18T00:34:20.886Z,95950
2015-05-18T00:34:39.404Z,95956
2015-05-18T00:34:57.919Z,95950
2015-05-18T00:35:16.357Z,95950
2015-05-18T00:35:35.000Z,95945
2015-05-18T00:35:53.609Z,95942
2015-05-18T00:36:12.453Z,95951
2015-05-18T00:36:30.909Z,95948
2015-05-18T00:36:49.424Z,95948
2015-05-18T00:37:07.815Z,95945
2015-05-18T00:37:26.549Z,95948
2015-05-18T00:37:45.333Z,95939
2015-05-18T00:38:03.958Z,95945
2015-05-18T00:38:22.489Z,95945
2015-05-18T00:38:41.258Z,95943
2015-05-18T00:38:59.711Z,95945
2015-05-18T00:39:18.304Z,95945
2015-05-18T00:39:36.867Z,95940
2015-05-18T00:39:55.245Z,95931
2015-05-18T00:40:13.682Z,95937
2015-05-18T00:40:32.573Z,95934
2015-05-18T00:40:51.122Z,95926
2015-05-18T00:41:09.575Z,95934
2015-05-18T00:41:28.044Z,95934
2015-05-18T00:41:46.466Z,95934
2015-05-18T00:42:04.983Z,95929
2015-05-18T00:42:23.546Z,95926
2015-05-18T00:42:41.983Z,95926
2015-05-18T00:43:00.393Z,95935
2015-05-18T00:43:18.955Z,95935
2015-05-18T00:43:37.596Z,95932
2015-05-18T00:43:56.004Z,95932
2015-05-18T00:44:14.598Z,95932
2015-05-18T00:44:33.066Z,95929
2015-05-18T00:44:51.460Z,95926
2015-05-18T00:45:10.413Z,95918
2015-05-18T00:45:28.882Z,95924
2015-05-18T00:45:47.538Z,95924
2015-05-18T00:46:05.774Z,95921
2015-05-18T00:46:24.570Z,95921
2015-05-18T00:46:43.492Z,95930
2015-05-18T00:47:02.042Z,95921
2015-05-18T00:47:20.527Z,95927
2015-05-18T00:47:39.089Z,95924
2015-05-18T00:47:57.732Z,95919
2015-05-18T00:48:16.122Z,95925
2015-05-18T00:48:34.810Z,95930
2015-05-18T00:48:53.341Z,95925
2015-05-18T00:49:11.781Z,95930
2015-05-18T00:49:30.499Z,95919
2015-05-18T00:49:49.093Z,95922
2015-05-18T00:50:07.862Z,95919
2015-05-18T00:50:26.362Z,95916
2015-05-18T00:50:44.955Z,95922
2015-05-18T00:51:03.364Z,95919
2015-05-18T00:51:21.879Z,95919
2015-05-18T00:51:40.270Z,95925
2015-05-18T00:51:58.739Z,95912
2015-05-18T00:52:17.132Z,95928
2015-05-18T00:52:35.742Z,95912
2015-05-18T00:52:54.195Z,95925
2015-05-18T00:53:12.634Z,95917
2015-05-18T00:53:31.244Z,95912
2015-05-18T00:53:49.806Z,95915
2015-05-18T00:54:08.262Z,95917
2015-05-18T00:54:26.700Z,95917
2015-05-18T00:54:45.434Z,95912
2015-05-18T00:55:03.965Z,95909
2015-05-18T00:55:22.358Z,95912
2015-05-18T00:55:40.967Z,95915
2015-05-18T00:55:59.686Z,95912
2015-05-18T00:56:18.344Z,95915
2015-05-18T00:56:36.860Z,95912
2015-05-18T00:56:55.438Z,95915
2015-05-18T00:57:13.926Z,95912
2015-05-18T00:57:32.551Z,95907
2015-05-18T00:57:50.426Z,95907
2015-05-18T00:58:09.113Z,95907
2015-05-18T00:58:27.771Z,95907
2015-05-18T00:58:46.537Z,95901
2015-05-18T00:59:05.006Z,95901
2015-05-18T00:59:23.648Z,95907
2015-05-18T00:59:42.320Z,95916
2015-05-18T01:00:00.992Z,95918
2015-05-18T01:00:19.398Z,95902
2015-05-18T01:00:37.979Z,95902
2015-05-18T01:00:56.651Z,95905
2015-05-18T01:01:15.245Z,95902
2015-05-18T01:01:34.044Z,95907
2015-05-18T01:01:52.841Z,95902
2015-05-18T01:02:11.356Z,95913
2015-05-18T01:02:29.688Z,95902
2015-05-18T01:02:48.328Z,95910
2015-05-18T01:03:06.922Z,95902
2015-05-18T01:03:25.596Z,95902
2015-05-18T01:03:44.143Z,95905
2015-05-18T01:04:02.565Z,95911
2015-05-18T01:04:21.002Z,95908
2015-05-18T01:04:39.693Z,95905
2015-05-18T01:04:58.255Z,95905
2015-05-18T01:05:16.708Z,95905
2015-05-18T01:05:35.351Z,95897
2015-05-18T01:05:54.179Z,95903
2015-05-18T01:06:12.726Z,95900
2015-05-18T01:06:31.180Z,95903
2015-05-18T01:06:49.930Z,95897
2015-05-18T01:07:08.664Z,95886
2015-05-18T01:07:27.324Z,95889
2015-05-18T01:07:46.105Z,95892
2015-05-18T01:08:04.761Z,95895
2015-05-18T01:08:23.183Z,95889
2015-05-18T01:08:41.576Z,95897
2015-05-18T01:09:00.185Z,95895
2015-05-18T01:09:18.935Z,95886
2015-05-18T01:09:37.532Z,95895
2015-05-18T01:09:55.922Z,95895
2015-05-18T01:10:14.391Z,95900
2015-05-18T01:10:32.782Z,95897
2015-05-18T01:10:51.346Z,95895
2015-05-18T01:11:09.831Z,95892
2015-05-18T01:11:28.206Z,95889
2015-05-18T01:11:46.600Z,95898
2015-05-18T01:12:05.131Z,95895
2015-05-18T01:12:23.663Z,95892
2015-05-18T01:12:41.647Z,95889
2015-05-18T01:12:59.883Z,95889
2015-05-18T01:13:18.243Z,95889
2015-05-18T01:13:36.696Z,95889
2015-05-18T01:13:56.105Z,95878
2015-05-18T01:14:14.480Z,95884
2015-05-18T01:14:32.996Z,95887
2015-05-18T01:14:51.045Z,95887
2015-05-18T01:15:09.076Z,95884
2015-05-18T01:15:27.170Z,95890
2015-05-18T01:15:44.982Z,95887
2015-05-18T01:16:03.126Z,95887
2015-05-18T01:16:21.110Z,95884
2015-05-18T01:16:39.235Z,95890
2015-05-18T01:16:57.253Z,95881
2015-05-18T01:17:15.159Z,95890
2015-05-18T01:17:32.706Z,95887
2015-05-18T01:17:50.268Z,95884
2015-05-18T01:18:08.178Z,95884
2015-05-18T01:18:25.959Z,95884
2015-05-18T01:18:43.834Z,95879
2015-05-18T01:19:02.305Z,95882
2015-05-18T01:19:20.711Z,95882
2015-05-18T01:19:38.586Z,95873
2015-05-18T01:19:56.601Z,95884
2015-05-18T01:20:15.072Z,95873
2015-05-18T01:20:33.260Z,95873
2015-05-18T01:20:51.197Z,95882
2015-05-18T01:21:09.091Z,95873
2015-05-18T01:21:27.013Z,95887
2015-05-18T01:21:44.997Z,95885
2015-05-18T01:22:02.342Z,95879
2015-05-18T01:22:20.498Z,95882
2015-05-18T01:22:38.404Z,95876
2015-05-18T01:22:56.014Z,95870
2015-05-18T01:23:14.142Z,95876
2015-05-18T01:23:32.298Z,95870
2015-05-18T01:23:50.267Z,95879
2015-05-18T01:24:08.566Z,95876
2015-05-18T01:24:26.722Z,95876
2015-05-18T01:24:45.159Z,95871
2015-05-18T01:25:02.972Z,95876
2015-05-18T01:25:20.912Z,95868
2015-05-18T01:25:39.053Z,95871
2015-05-18T01:25:57.162Z,95865
2015-05-18T01:26:15.259Z,95865
2015-05-18T01:26:33.618Z,95868
2015-05-18T01:26:52.243Z,95879
2015-05-18T01:27:10.806Z,95871
2015-05-18T01:27:29.449Z,95871
2015-05-18T01:27:48.074Z,95862
2015-05-18T01:28:06.917Z,95877
2015-05-18T01:28:25.470Z,95865
2015-05-18T01:28:43.871Z,95871
2015-05-18T01:29:02.277Z,95871
2015-05-18T01:29:20.952Z,95874
2015-05-18T01:29:39.795Z,95877
2015-05-18T01:29:58.374Z,95871
2015-05-18T01:30:16.876Z,95866
2015-05-18T01:30:35.438Z,95874
2015-05-18T01:30:54.157Z,95877
2015-05-18T01:31:12.844Z,95871
2015-05-18T01:31:31.269Z,95866
2015-05-18T01:31:49.769Z,95874
2015-05-18T01:32:08.191Z,95869
2015-05-18T01:32:26.883Z,95869
2015-05-18T01:32:45.727Z,95863
2015-05-18T01:33:04.149Z,95874
2015-05-18T01:33:22.790Z,95866
2015-05-18T01:33:41.230Z,95874
2015-05-18T01:33:59.683Z,95869
2015-05-18T01:34:18.308Z,95866
2015-05-18T01:34:36.702Z,95872
2015-05-18T01:34:55.186Z,95863
2015-05-18T01:35:13.608Z,95872
2015-05-18T01:35:32.047Z,95872
2015-05-18T01:35:50.625Z,95875
2015-05-18T01:36:09.062Z,95869
2015-05-18T01:36:27.547Z,95875
2015-05-18T01:36:46.018Z,95867
2015-05-18T01:37:04.472Z,95875
2015-05-18T01:37:23.050Z,95870
2015-05-18T01:37:41.489Z,95864
2015-05-18T01:37:59.927Z,95864
2015-05-18T01:38:18.145Z,95870
2015-05-18T01:38:36.882Z,95870
2015-05-18T01:38:55.679Z,95864
2015-05-18T01:39:14.116Z,95870
2015-05-18T01:39:32.760Z,95861
2015-05-18T01:39:51.400Z,95867
2015-05-18T01:40:09.916Z,95873
2015-05-18T01:40:28.369Z,95870
2015-05-18T01:40:46.700Z,95870
2015-05-18T01:41:05.153Z,95873
2015-05-18T01:41:23.591Z,95864
2015-05-18T01:41:41.890Z,95865
2015-05-18T01:42:00.171Z,95865
2015-05-18T01:42:18.577Z,95862
2015-05-18T01:42:37.032Z,95865
2015-05-18T01:42:55.907Z,95862
2015-05-18T01:43:14.595Z,95856
2015-05-18T01:43:33.111Z,95859
2015-05-18T01:43:51.644Z,95868
2015-05-18T01:44:10.222Z,95862
2015-05-18T01:44:28.941Z,95868
2015-05-18T01:44:47.725Z,95865
2015-05-18T01:45:06.350Z,95862
2015-05-18T01:45:25.006Z,95868
2015-05-18T01:45:43.618Z,95865
2015-05-18T01:46:02.258Z,95868
2015-05-18T01:46:20.914Z,95862
2015-05-18T01:46:39.589Z,95862
2015-05-18T01:46:58.417Z,95868
2015-05-18T01:47:16.871Z,95865
2015-05-18T01:47:35.605Z,95865
2015-05-18T01:47:54.263Z,95865
2015-05-18T01:48:12.951Z,95865
2015-05-18T01:48:31.638Z,95860
2015-05-18T01:48:50.062Z,95860
2015-05-18T01:49:08.562Z,95862
2015-05-18T01:49:27.156Z,95857
2015-05-18T01:49:45.753Z,95854
2015-05-18T01:50:04.253Z,95862
2015-05-18T01:50:22.174Z,95860
2015-05-18T01:50:40.674Z,95854
2015-05-18T01:50:59.099Z,95860
2015-05-18T01:51:17.881Z,95849
2015-05-18T01:51:36.427Z,95869
2015-05-18T01:51:55.164Z,95858
2015-05-18T01:52:13.695Z,95849
2015-05-18T01:52:32.258Z,95858
2015-05-18T01:52:50.867Z,95852
2015-05-18T01:53:09.635Z,95855
2015-05-18T01:53:28.213Z,95858
2015-05-18T01:53:46.666Z,95861
2015-05-18T01:54:05.152Z,95861
2015-05-18T01:54:23.699Z,95852
2015-05-18T01:54:42.262Z,95864
2015-05-18T01:55:01.014Z,95852
2015-05-18T01:55:19.404Z,95858
2015-05-18T01:55:38.139Z,95855
2015-05-18T01:55:56.923Z,95855
2015-05-18T01:56:15.532Z,95853
2015-05-18T01:56:34.142Z,95850
2015-05-18T01:56:52.907Z,95853
2015-05-18T01:57:11.644Z,95847
2015-05-18T01:57:30.534Z,95856
2015-05-18T01:57:49.128Z,95856
2015-05-18T01:58:07.708Z,95856
2015-05-18T01:58:26.271Z,95853
2015-05-18T01:58:44.739Z,95853
2015-05-18T01:59:03.742Z,95850
2015-05-18T01:59:22.555Z,95850
2015-05-18T01:59:41.117Z,95844
2015-05-18T01:59:59.963Z,95853
2015-05-18T02:00:18.463Z,95850
2015-05-18T02:00:37.057Z,95841
2015-05-18T02:00:55.979Z,95850
2015-05-18T02:01:14.607Z,95850
2015-05-18T02:01:33.013Z,95839
2015-05-18T02:01:51.419Z,95847
2015-05-18T02:02:10.015Z,95847
2015-05-18T02:02:28.577Z,95850
2015-05-18T02:02:47.124Z,95842
2015-05-18T02:03:05.546Z,95842
2015-05-18T02:03:23.939Z,95847
2015-05-18T02:03:42.704Z,95845
2015-05-18T02:04:01.345Z,95839
2015-05-18T02:04:19.786Z,95842
2015-05-18T02:04:38.411Z,95836
2015-05-18T02:04:56.848Z,95836
2015-05-18T02:05:15.631Z,95842
2015-05-18T02:05:34.053Z,95831
2015-05-18T02:05:52.647Z,95836
2015-05-18T02:06:11.163Z,95833
2015-05-18T02:06:29.978Z,95839
2015-05-18T02:06:48.587Z,95834
2015-05-18T02:07:06.994Z,95839
2015-05-18T02:07:25.559Z,95837
2015-05-18T02:07:44.372Z,95834
2015-05-18T02:08:02.809Z,95831
2015-05-18T02:08:21.419Z,95839
2015-05-18T02:08:39.920Z,95831
2015-05-18T02:08:58.357Z,95831
2015-05-18T02:09:16.857Z,95828
2015-05-18T02:09:35.454Z,95837
2015-05-18T02:09:54.016Z,95831
2015-05-18T02:10:12.438Z,95840
2015-05-18T02:10:31.175Z,95831
2015-05-18T02:10:49.846Z,95825
2015-05-18T02:11:08.534Z,95837
2015-05-18T02:11:27.161Z,95837
2015-05-18T02:11:45.817Z,95820
2015-05-18T02:12:04.302Z,95837
2015-05-18T02:12:22.880Z,95831
2015-05-18T02:12:41.383Z,95831
2015-05-18T02:12:59.367Z,95831
2015-05-18T02:13:17.820Z,95826
2015-05-18T02:13:36.261Z,95826
2015-05-18T02:13:54.979Z,95828
2015-05-18T02:14:20.354Z,95828
2015-05-18T02:14:38.810Z,95823
2015-05-18T02:14:57.200Z,95820
2015-05-18T02:15:15.794Z,95834
2015-05-18T02:15:34.388Z,95820
2015-05-18T02:15:52.983Z,95834
2015-05-18T02:16:11.374Z,95826
2015-05-18T02:16:29.858Z,95829
2015-05-18T02:16:48.408Z,95829
2015-05-18T02:17:06.799Z,95832
2015-05-18T02:17:25.268Z,95829
2015-05-18T02:17:43.832Z,95829
2015-05-18T02:18:02.223Z,95826
2015-05-18T02:18:20.723Z,95826
2015-05-18T02:18:39.238Z,95826
2015-05-18T02:18:57.648Z,95826
2015-05-18T02:19:16.273Z,95832
2015-05-18T02:19:34.679Z,95823
2015-05-18T02:19:53.150Z,95826
2015-05-18T02:20:11.540Z,95823
2015-05-18T02:20:30.040Z,95821
2015-05-18T02:20:48.493Z,95823
2015-05-18T02:21:06.903Z,95824
2015-05-18T02:21:25.278Z,95829
2015-05-18T02:21:43.715Z,95818
2015-05-18T02:22:02.154Z,95818
2015-05-18T02:22:20.622Z,95821
2015-05-18T02:22:38.997Z,95818
2015-05-18T02:22:57.407Z,95829
2015-05-18T02:23:15.797Z,95815
2015-05-18T02:23:34.297Z,95824
2015-05-18T02:23:52.688Z,95821
2015-05-18T02:24:11.253Z,95824
2015-05-18T02:24:29.832Z,95821
2015-05-18T02:24:48.347Z,95824
2015-05-18T02:25:06.802Z,95821
2015-05-18T02:25:25.224Z,95827
2015-05-18T02:25:43.802Z,95815
2015-05-18T02:26:02.320Z,95815
2015-05-18T02:26:20.711Z,95824
2015-05-18T02:26:39.304Z,95818
2015-05-18T02:26:57.900Z,95810
2015-05-18T02:27:16.478Z,95810
2015-05-18T02:27:34.947Z,95824
2015-05-18T02:27:53.478Z,95804
2015-05-18T02:28:11.919Z,95810
2015-05-18T02:28:30.450Z,95810
2015-05-18T02:28:49.184Z,95818
2015-05-18T02:29:07.577Z,95801
2015-05-18T02:29:25.968Z,95804
2015-05-18T02:29:44.358Z,95804
2015-05-18T02:30:02.752Z,95798
2015-05-18T02:30:21.299Z,95796
2015-05-18T02:30:39.689Z,95810
2015-05-18T02:30:58.080Z,95804
2015-05-18T02:31:16.723Z,95798
2015-05-18T02:31:35.113Z,95801
2015-05-18T02:31:53.723Z,95804
2015-05-18T02:32:12.115Z,95807
2015-05-18T02:32:30.506Z,95807
2015-05-18T02:32:49.209Z,95807
2015-05-18T02:33:07.634Z,95796
2015-05-18T02:33:26.056Z,95796
2015-05-18T02:33:44.446Z,95796
2015-05-18T02:34:03.024Z,95807
2015-05-18T02:34:21.433Z,95798
2015-05-18T02:34:39.901Z,95807
2015-05-18T02:34:58.292Z,95796
2015-05-18T02:35:16.686Z,95790
2015-05-18T02:35:35.170Z,95801
2015-05-18T02:35:53.733Z,95802
2015-05-18T02:36:12.235Z,95799
2015-05-18T02:36:30.672Z,95805
2015-05-18T02:36:49.141Z,95802
2015-05-18T02:37:07.531Z,95796
2015-05-18T02:37:25.955Z,95802
2015-05-18T02:37:44.346Z,95796
2015-05-18T02:38:02.877Z,95794
2015-05-18T02:38:21.270Z,95793
2015-05-18T02:38:39.098Z,95791
2015-05-18T02:38:57.489Z,95791
2015-05-18T02:39:15.957Z,95788
2015-05-18T02:39:34.335Z,95794
2015-05-18T02:39:52.726Z,95796
2015-05-18T02:40:11.304Z,95797
2015-05-18T02:40:29.697Z,95791
2015-05-18T02:40:48.119Z,95802
2015-05-18T02:41:06.509Z,95788
2015-05-18T02:41:24.915Z,95797
2015-05-18T02:41:42.653Z,95794
2015-05-18T02:42:01.247Z,95802
2015-05-18T02:42:19.965Z,95791
2015-05-18T02:42:38.483Z,95794
2015-05-18T02:42:56.920Z,95797
2015-05-18T02:43:15.389Z,95797
2015-05-18T02:43:33.939Z,95797
2015-05-18T02:43:52.314Z,95788
2015-05-18T02:44:10.705Z,95797
2015-05-18T02:44:29.095Z,95788
2015-05-18T02:44:47.661Z,95800
2015-05-18T02:45:06.114Z,95797
2015-05-18T02:45:24.786Z,95791
2015-05-18T02:45:43.257Z,95791
2015-05-18T02:46:01.819Z,95794
2015-05-18T02:46:19.569Z,95791
2015-05-18T02:46:38.007Z,95794
2015-05-18T02:46:56.462Z,95797
2015-05-18T02:47:14.852Z,95786
2015-05-18T02:47:33.259Z,95797
2015-05-18T02:47:51.652Z,95783
2015-05-18T02:48:10.277Z,95788
2015-05-18T02:48:28.793Z,95788
2015-05-18T02:48:47.183Z,95786
2015-05-18T02:49:05.670Z,95791
2015-05-18T02:49:24.123Z,95786
2015-05-18T02:49:42.529Z,95788
2015-05-18T02:50:01.078Z,95788
2015-05-18T02:50:19.500Z,95788
2015-05-18T02:50:37.953Z,95786
2015-05-18T02:50:56.409Z,95791
2015-05-18T02:51:14.940Z,95775
2015-05-18T02:51:33.347Z,95788
2015-05-18T02:51:51.737Z,95777
2015-05-18T02:52:10.396Z,95780
2015-05-18T02:52:28.911Z,95780
2015-05-18T02:52:47.302Z,95783
2015-05-18T02:53:05.851Z,95777
2015-05-18T02:53:24.398Z,95783
2015-05-18T02:53:42.788Z,95777
2015-05-18T02:54:01.259Z,95783
2015-05-18T02:54:19.806Z,95783
2015-05-18T02:54:38.196Z,95775
2015-05-18T02:54:56.606Z,95783
2015-05-18T02:55:15.028Z,95783
2015-05-18T02:55:33.496Z,95777
2015-05-18T02:55:51.887Z,95783
2015-05-18T02:56:10.390Z,95777
2015-05-18T02:56:28.859Z,95786
2015-05-18T02:56:47.281Z,95783
2015-05-18T02:57:05.828Z,95788
2015-05-18T02:57:24.188Z,95772
2015-05-18T02:57:42.735Z,95783
2015-05-18T02:58:01.347Z,95775
2015-05-18T02:58:19.785Z,95780
2015-05-18T02:58:38.222Z,95772
2015-05-18T02:58:56.644Z,95772
2015-05-18T02:59:15.021Z,95775
2015-05-18T02:59:33.568Z,95786
2015-05-18T02:59:52.021Z,95777
2015-05-18T03:00:10.430Z,95772
2015-05-18T03:00:28.930Z,95786
2015-05-18T03:00:47.508Z,95777
2015-05-18T03:01:05.963Z,95777
2015-05-18T03:01:24.354Z,95775
2015-05-18T03:01:43.229Z,95777
2015-05-18T03:02:01.635Z,95775
2015-05-18T03:02:20.153Z,95775
2015-05-18T03:02:38.669Z,95772
2015-05-18T03:02:57.387Z,95783
2015-05-18T03:03:15.827Z,95777
2015-05-18T03:03:34.280Z,95775
2015-05-18T03:03:52.749Z,95775
2015-05-18T03:04:11.174Z,95783
2015-05-18T03:04:29.674Z,95777
2015-05-18T03:04:48.127Z,95786
2015-05-18T03:05:06.517Z,95780
2015-05-18T03:05:25.004Z,95772
2015-05-18T03:05:43.441Z,95775
2015-05-18T03:06:01.910Z,95783
2015-05-18T03:06:19.647Z,95775
2015-05-18T03:06:38.241Z,95783
2015-05-18T03:06:56.804Z,95775
2015-05-18T03:07:15.319Z,95777
2015-05-18T03:07:33.743Z,95777
2015-05-18T03:07:52.462Z,95775
2015-05-18T03:08:11.259Z,95780
2015-05-18T03:08:29.652Z,95780
2015-05-18T03:08:48.309Z,95777
2015-05-18T03:09:06.777Z,95775
2015-05-18T03:09:25.295Z,95779
2015-05-18T03:09:44.076Z,95769
2015-05-18T03:10:02.467Z,95779
2015-05-18T03:10:21.045Z,95775
2015-05-18T03:10:39.501Z,95779
2015-05-18T03:10:57.892Z,95779
2015-05-18T03:11:16.657Z,95779
2015-05-18T03:11:35.175Z,95769
2015-05-18T03:11:53.753Z,95777
2015-05-18T03:12:12.237Z,95775
2015-05-18T03:12:30.706Z,95769
2015-05-18T03:12:49.099Z,95772
2015-05-18T03:13:07.599Z,95769
2015-05-18T03:13:25.989Z,95772
2015-05-18T03:13:44.524Z,95769
2015-05-18T03:14:03.196Z,95777
2015-05-18T03:14:21.039Z,95766
2015-05-18T03:14:39.463Z,95769
2015-05-18T03:14:57.963Z,95772
2015-05-18T03:15:16.463Z,95769
2015-05-18T03:15:35.073Z,95772
2015-05-18T03:15:53.732Z,95766
2015-05-18T03:16:12.326Z,95766
2015-05-18T03:16:30.841Z,95758
2015-05-18T03:16:49.374Z,95766
2015-05-18T03:17:07.781Z,95763
2015-05-18T03:17:26.187Z,95769
2015-05-18T03:17:44.690Z,95763
2015-05-18T03:18:03.159Z,95761
2015-05-18T03:18:21.612Z,95775
2015-05-18T03:18:40.191Z,95769
2015-05-18T03:18:58.816Z,95769
2015-05-18T03:19:17.332Z,95763
2015-05-18T03:19:35.738Z,95766
2015-05-18T03:19:54.272Z,95766
2015-05-18T03:20:12.741Z,95775
2015-05-18T03:20:31.335Z,95772
2015-05-18T03:20:49.727Z,95758
2015-05-18T03:21:08.149Z,95769
2015-05-18T03:21:26.540Z,95766
2015-05-18T03:21:45.090Z,95769
2015-05-18T03:22:03.605Z,95766
2015-05-18T03:22:22.058Z,95764
2015-05-18T03:22:40.465Z,95769
2015-05-18T03:22:58.967Z,95764
2015-05-18T03:23:17.607Z,95766
2015-05-18T03:23:36.045Z,95758
2015-05-18T03:23:54.765Z,95758
2015-05-18T03:24:13.219Z,95761
2015-05-18T03:24:31.625Z,95758
2015-05-18T03:24:50.002Z,95755
2015-05-18T03:25:08.533Z,95767
2015-05-18T03:25:27.033Z,95755
2015-05-18T03:25:45.471Z,95764
2015-05-18T03:26:03.864Z,95761
2015-05-18T03:26:22.364Z,95761
2015-05-18T03:26:40.911Z,95755
2015-05-18T03:26:59.492Z,95755
2015-05-18T03:27:17.883Z,95761
2015-05-18T03:27:36.461Z,95758
2015-05-18T03:27:55.056Z,95758
2015-05-18T03:28:13.696Z,95758
2015-05-18T03:28:32.228Z,95758
2015-05-18T03:28:50.634Z,95753
2015-05-18T03:29:09.090Z,95756
2015-05-18T03:29:28.012Z,95761
2015-05-18T03:29:46.652Z,95759
2015-05-18T03:30:05.171Z,95762
2015-05-18T03:30:23.687Z,95756
2015-05-18T03:30:42.249Z,95762
2015-05-18T03:31:00.486Z,95756
2015-05-18T03:31:19.236Z,95759
2015-05-18T03:31:37.939Z,95762
2015-05-18T03:31:56.532Z,95756
2015-05-18T03:32:14.989Z,95759
2015-05-18T03:32:33.504Z,95753
2015-05-18T03:32:51.989Z,95756
2015-05-18T03:33:10.537Z,95753
2015-05-18T03:33:28.975Z,95759
2015-05-18T03:33:47.506Z,95759
2015-05-18T03:34:05.975Z,95759
2015-05-18T03:34:24.508Z,95750
2015-05-18T03:34:42.946Z,95756
2015-05-18T03:35:01.430Z,95762
2015-05-18T03:35:19.932Z,95753
2015-05-18T03:35:38.541Z,95753
2015-05-18T03:35:56.979Z,95753
2015-05-18T03:36:15.873Z,95753
2015-05-18T03:36:34.373Z,95753
2015-05-18T03:36:52.810Z,95745
2015-05-18T03:37:11.204Z,95753
2015-05-18T03:37:29.751Z,95748
2015-05-18T03:37:48.438Z,95748
2015-05-18T03:38:06.829Z,95739
2015-05-18T03:38:25.220Z,95756
2015-05-18T03:38:43.611Z,95751
2015-05-18T03:39:02.002Z,95751
2015-05-18T03:39:20.411Z,95753
2015-05-18T03:39:38.801Z,95754
2015-05-18T03:39:57.208Z,95751
2015-05-18T03:40:15.647Z,95754
2015-05-18T03:40:34.288Z,95754
2015-05-18T03:40:52.725Z,95742
2015-05-18T03:41:11.522Z,95745
2015-05-18T03:41:29.963Z,95748
2015-05-18T03:41:48.353Z,95748
2015-05-18T03:42:06.744Z,95748
2015-05-18T03:42:25.137Z,95734
2015-05-18T03:42:43.746Z,95754
2015-05-18T03:43:02.168Z,95745
2015-05-18T03:43:20.593Z,95745
2015-05-18T03:43:39.124Z,95743
2015-05-18T03:43:57.530Z,95743
2015-05-18T03:44:16.311Z,95748
2015-05-18T03:44:34.704Z,95748
2015-05-18T03:44:53.220Z,95740
2015-05-18T03:45:11.860Z,95746
2015-05-18T03:45:30.487Z,95748
2015-05-18T03:45:48.222Z,95749
2015-05-18T03:46:06.737Z,95740
2015-05-18T03:46:25.381Z,95746
2015-05-18T03:46:43.803Z,95749
2015-05-18T03:47:02.193Z,95751
2015-05-18T03:47:20.772Z,95746
2015-05-18T03:47:39.227Z,95749
2015-05-18T03:47:57.617Z,95740
2015-05-18T03:48:16.227Z,95749
2015-05-18T03:48:34.916Z,95743
2015-05-18T03:48:53.494Z,95746
2015-05-18T03:49:12.135Z,95746
2015-05-18T03:49:30.699Z,95743
2015-05-18T03:49:49.371Z,95737
2015-05-18T03:50:07.887Z,95743
2015-05-18T03:50:26.418Z,95746
2015-05-18T03:50:45.077Z,95740
2015-05-18T03:51:03.515Z,95749
2015-05-18T03:51:21.952Z,95737
2015-05-18T03:51:40.502Z,95740
2015-05-18T03:51:58.971Z,95740
2015-05-18T03:52:17.659Z,95737
2015-05-18T03:52:36.161Z,95740
2015-05-18T03:52:54.629Z,95740
2015-05-18T03:53:13.114Z,95743
2015-05-18T03:53:31.598Z,95740
2015-05-18T03:53:50.164Z,95746
2015-05-18T03:54:08.804Z,95737
2015-05-18T03:54:27.335Z,95743
2015-05-18T03:54:45.884Z,95732
2015-05-18T03:55:04.556Z,95738
2015-05-18T03:55:23.041Z,95729
2015-05-18T03:55:41.556Z,95740
2015-05-18T03:56:00.011Z,95735
2015-05-18T03:56:18.636Z,95735
2015-05-18T03:56:37.168Z,95735
2015-05-18T03:56:55.779Z,95735
2015-05-18T03:57:14.560Z,95740
2015-05-18T03:57:33.310Z,95740
2015-05-18T03:57:51.798Z,95735
2015-05-18T03:58:10.266Z,95746